createdAt,value
2023-04-28T00:01:47.782Z,8.40
2023-04-28T00:04:17.048Z,8.50
2023-04-28T00:06:48.604Z,8.50
2023-04-28T00:09:17.164Z,8.50
2023-04-28T00:11:48.951Z,8.30
2023-04-28T00:14:17.726Z,8.50
2023-04-28T00:16:46.319Z,8.30
2023-04-28T00:19:17.026Z,8.10
2023-04-28T00:21:51.129Z,8.50
2023-04-28T00:24:21.896Z,8.30
2023-04-28T00:26:56.904Z,8.30
2023-04-28T00:29:28.110Z,8.30
2023-04-28T00:31:56.710Z,8.50
2023-04-28T00:34:27.638Z,8.40
2023-04-28T00:36:59.173Z,8.00
2023-04-28T00:39:28.516Z,8.10
2023-04-28T00:41:59.436Z,8.30
2023-04-28T00:44:27.227Z,8.10
2023-04-28T00:46:55.703Z,8.30
2023-04-28T00:49:24.430Z,8.30
2023-04-28T00:51:54.187Z,8.10
2023-04-28T00:54:37.618Z,8.30
2023-04-28T00:57:05.652Z,8.40
2023-04-28T00:59:34.780Z,8.40
2023-04-28T01:02:04.857Z,8.50
2023-04-28T01:04:33.341Z,8.50
2023-04-28T01:07:02.871Z,8.50
2023-04-28T01:09:33.343Z,8.50
2023-04-28T01:12:02.287Z,8.30
2023-04-28T01:14:34.777Z,8.60
2023-04-28T01:17:09.277Z,8.40
2023-04-28T01:19:44.605Z,8.60
2023-04-28T01:22:17.305Z,8.80
2023-04-28T01:24:45.442Z,8.50
2023-04-28T01:27:16.045Z,8.70
2023-04-28T01:32:14.832Z,8.70
2023-04-28T01:34:44.107Z,8.70
2023-04-28T01:37:18.279Z,8.60
2023-04-28T01:39:46.517Z,8.60
2023-04-28T01:42:15.767Z,8.60
2023-04-28T01:44:44.731Z,8.60
2023-04-28T01:47:13.550Z,8.60
2023-04-28T01:49:44.544Z,8.80
2023-04-28T01:52:17.071Z,8.80
2023-04-28T01:54:46.107Z,8.60
2023-04-28T01:57:17.544Z,8.60
2023-04-28T01:59:48.683Z,8.70
2023-04-28T02:02:22.224Z,8.70
2023-04-28T02:05:00.265Z,8.60
2023-04-28T02:07:33.975Z,8.80
2023-04-28T02:10:08.830Z,8.80
2023-04-28T02:12:49.615Z,8.80
2023-04-28T02:15:27.310Z,8.50
2023-04-28T02:18:03.526Z,8.80
2023-04-28T02:20:38.943Z,8.80
2023-04-28T02:23:18.808Z,8.70
2023-04-28T02:25:56.901Z,8.70
2023-04-28T02:28:42.658Z,8.60
2023-04-28T02:31:19.366Z,8.60
2023-04-28T02:36:41.769Z,8.90
2023-04-28T02:39:26.422Z,8.90
2023-04-28T02:41:56.374Z,9.00
2023-04-28T02:44:29.841Z,9.00
2023-04-28T02:47:05.173Z,8.80
2023-04-28T02:49:38.402Z,9.00
2023-04-28T02:52:10.064Z,9.00
2023-04-28T02:54:40.466Z,9.00
2023-04-28T02:57:13.091Z,9.00
2023-04-28T02:59:44.749Z,9.00
2023-04-28T03:02:20.209Z,8.90
2023-04-28T03:04:50.106Z,8.80
2023-04-28T03:07:19.925Z,9.00
2023-04-28T03:09:53.118Z,9.00
2023-04-28T03:12:25.400Z,9.00
2023-04-28T03:14:56.822Z,9.00
2023-04-28T03:17:28.806Z,9.10
2023-04-28T03:20:05.790Z,8.80
2023-04-28T03:22:44.596Z,9.10
2023-04-28T03:25:18.306Z,9.10
2023-04-28T03:27:54.104Z,8.80
2023-04-28T03:30:29.088Z,9.10
2023-04-28T03:32:59.599Z,9.10
2023-04-28T03:35:30.958Z,9.10
2023-04-28T03:38:03.973Z,9.10
2023-04-28T03:40:33.237Z,9.10
2023-04-28T03:43:04.905Z,9.10
2023-04-28T03:45:33.679Z,9.20
2023-04-28T03:48:03.274Z,9.10
2023-04-28T03:50:34.162Z,9.10
2023-04-28T03:53:03.040Z,8.80
2023-04-28T03:55:32.378Z,9.10
2023-04-28T03:58:08.439Z,9.10
2023-04-28T04:00:40.853Z,9.30
2023-04-28T04:03:16.566Z,8.80
2023-04-28T04:05:54.044Z,9.20
2023-04-28T04:08:23.039Z,9.00
2023-04-28T04:10:51.881Z,8.70
2023-04-28T04:13:23.097Z,9.20
2023-04-28T04:15:53.221Z,9.10
2023-04-28T04:18:24.180Z,9.10
2023-04-28T04:20:53.613Z,9.10
2023-04-28T04:23:20.602Z,9.50
2023-04-28T04:25:47.715Z,9.20
2023-04-28T04:28:14.684Z,9.30
2023-04-28T04:30:41.494Z,9.30
2023-04-28T04:33:08.825Z,9.40
2023-04-28T04:35:35.760Z,9.40
2023-04-28T04:38:03.385Z,9.40
2023-04-28T04:40:30.231Z,9.70
2023-04-28T04:42:57.057Z,9.40
2023-04-28T04:45:23.865Z,9.80
2023-04-28T04:47:50.749Z,9.60
2023-04-28T04:50:17.654Z,9.70
2023-04-28T04:52:44.497Z,9.90
2023-04-28T04:55:11.520Z,10.10
2023-04-28T04:57:38.365Z,10.30
2023-04-28T05:00:06.087Z,10.60
2023-04-28T05:02:33.000Z,10.70
2023-04-28T05:05:12.301Z,11.00
2023-04-28T05:07:46.589Z,11.40
2023-04-28T05:10:13.437Z,12.00
2023-04-28T05:12:40.340Z,12.60
2023-04-28T05:15:08.035Z,12.80
2023-04-28T05:17:35.130Z,13.50
2023-04-28T05:20:02.189Z,14.40
2023-04-28T05:22:32.520Z,15.40
2023-04-28T05:24:59.489Z,16.20
2023-04-28T05:27:26.355Z,17.00
2023-04-28T05:29:53.233Z,17.70
2023-04-28T05:32:20.176Z,17.90
2023-04-28T05:34:47.084Z,17.70
2023-04-28T05:37:14.139Z,16.90
2023-04-28T05:39:41.043Z,16.80
2023-04-28T05:42:07.957Z,16.60
2023-04-28T05:44:34.953Z,16.00
2023-04-28T05:47:01.941Z,15.50
2023-04-28T05:49:28.916Z,15.20
2023-04-28T05:51:55.907Z,15.00
2023-04-28T05:54:22.772Z,14.90
2023-04-28T05:56:49.732Z,14.50
2023-04-28T05:59:16.808Z,14.20
2023-04-28T06:01:43.924Z,14.10
2023-04-28T06:04:11.191Z,14.00
2023-04-28T06:06:38.220Z,14.10
2023-04-28T06:09:05.171Z,13.90
2023-04-28T06:11:32.029Z,13.60
2023-04-28T06:13:58.843Z,13.60
2023-04-28T06:16:25.792Z,13.60
2023-04-28T06:18:53.322Z,13.60
2023-04-28T06:21:21.312Z,13.60
2023-04-28T06:23:48.320Z,13.80
2023-04-28T06:26:17.970Z,13.60
2023-04-28T06:28:45.221Z,13.70
2023-04-28T06:31:12.199Z,13.70
2023-04-28T06:33:39.134Z,13.70
2023-04-28T06:36:06.540Z,14.20
2023-04-28T06:38:33.484Z,14.10
2023-04-28T06:41:00.324Z,14.40
2023-04-28T06:43:28.678Z,14.40
2023-04-28T06:45:55.780Z,14.60
2023-04-28T06:48:22.661Z,14.70
2023-04-28T06:50:49.512Z,15.00
2023-04-28T06:53:16.673Z,14.60
2023-04-28T06:55:43.665Z,14.50
2023-04-28T06:58:12.862Z,14.90
2023-04-28T07:00:39.741Z,14.80
2023-04-28T07:03:06.892Z,14.90
2023-04-28T07:05:34.292Z,15.10
2023-04-28T07:08:01.160Z,15.20
2023-04-28T07:10:28.038Z,15.30
2023-04-28T07:12:54.943Z,15.40
2023-04-28T07:15:24.561Z,15.60
2023-04-28T07:17:51.487Z,15.80
2023-04-28T07:20:18.518Z,16.00
2023-04-28T07:22:45.547Z,16.10
2023-04-28T07:25:12.466Z,16.10
2023-04-28T07:27:39.296Z,16.20
2023-04-28T07:30:18.685Z,16.30
2023-04-28T07:32:53.239Z,16.30
2023-04-28T07:35:20.088Z,16.30
2023-04-28T07:37:47.279Z,16.20
2023-04-28T07:40:14.336Z,16.30
2023-04-28T07:42:41.595Z,16.50
2023-04-28T07:45:09.233Z,16.60
2023-04-28T07:47:36.572Z,16.70
2023-04-28T07:50:06.349Z,16.70
2023-04-28T07:52:34.099Z,16.80
2023-04-28T07:55:03.234Z,16.90
2023-04-28T07:57:30.744Z,17.00
2023-04-28T07:59:57.672Z,17.10
2023-04-28T08:02:26.185Z,17.20
2023-04-28T08:04:53.488Z,17.40
2023-04-28T08:07:21.045Z,17.50
2023-04-28T08:09:48.257Z,17.60
2023-04-28T08:12:15.666Z,17.80
2023-04-28T08:14:42.712Z,17.90
2023-04-28T08:17:10.012Z,18.10
2023-04-28T08:19:37.552Z,18.20
2023-04-28T08:22:07.052Z,18.40
2023-04-28T08:24:34.461Z,18.70
2023-04-28T08:27:05.320Z,18.90
2023-04-28T08:29:32.931Z,19.20
2023-04-28T08:32:01.280Z,19.00
2023-04-28T08:34:28.352Z,18.80
2023-04-28T08:36:55.572Z,18.70
2023-04-28T08:39:23.684Z,18.50
2023-04-28T08:41:50.841Z,18.50
2023-04-28T08:44:18.704Z,18.40
2023-04-28T08:46:48.606Z,18.40
2023-04-28T08:49:17.216Z,18.50
2023-04-28T08:52:02.956Z,18.70
2023-04-28T08:54:32.369Z,18.90
2023-04-28T08:57:00.342Z,19.00
2023-04-28T08:59:27.520Z,19.20
2023-04-28T09:01:54.711Z,19.50
2023-04-28T09:04:22.457Z,19.70
2023-04-28T09:06:52.291Z,19.80
2023-04-28T09:09:20.222Z,19.90
2023-04-28T09:11:58.412Z,20.10
2023-04-28T09:14:26.742Z,20.30
2023-04-28T09:16:54.688Z,20.40
2023-04-28T09:19:21.860Z,20.40
2023-04-28T09:22:05.599Z,20.50
2023-04-28T09:24:46.008Z,20.30
2023-04-28T09:27:12.851Z,20.10
2023-04-28T09:29:51.726Z,19.90
2023-04-28T09:32:21.712Z,20.10
2023-04-28T09:34:49.750Z,20.20
2023-04-28T09:37:18.031Z,20.30
2023-04-28T09:39:47.571Z,20.40
2023-04-28T09:42:36.458Z,19.80
2023-04-28T09:45:04.654Z,20.30
2023-04-28T09:47:33.657Z,20.30
2023-04-28T09:50:06.204Z,20.40
2023-04-28T09:52:36.971Z,20.40
2023-04-28T09:55:05.752Z,20.50
2023-04-28T09:57:34.179Z,20.50
2023-04-28T10:00:04.974Z,20.50
2023-04-28T10:02:43.158Z,20.40
2023-04-28T10:05:11.690Z,20.30
2023-04-28T10:07:40.201Z,20.10
2023-04-28T10:10:08.149Z,20.00
2023-04-28T10:12:38.373Z,20.00
2023-04-28T10:15:07.521Z,20.10
2023-04-28T10:17:36.541Z,20.20
2023-04-28T10:20:03.843Z,20.30
2023-04-28T10:23:04.786Z,20.20
2023-04-28T10:25:35.238Z,20.20
2023-04-28T10:28:07.256Z,20.10
2023-04-28T10:30:35.144Z,20.00
2023-04-28T10:33:14.308Z,19.90
2023-04-28T10:35:46.227Z,19.90
2023-04-28T10:38:16.082Z,19.90
2023-04-28T10:40:46.934Z,19.70
2023-04-28T10:43:37.566Z,19.40
2023-04-28T10:46:06.607Z,19.30
2023-04-28T10:48:33.629Z,19.10
2023-04-28T10:51:03.883Z,19.00
2023-04-28T10:53:46.773Z,18.90
2023-04-28T10:56:16.879Z,18.80
2023-04-28T11:01:46.724Z,18.60
2023-04-28T11:04:15.226Z,18.50
2023-04-28T11:06:46.931Z,18.50
2023-04-28T11:09:19.540Z,18.50
2023-04-28T11:12:05.976Z,18.50
2023-04-28T11:14:35.152Z,18.60
2023-04-28T11:17:07.699Z,19.00
2023-04-28T11:19:38.983Z,18.90
2023-04-28T11:22:19.730Z,19.10
2023-04-28T11:25:00.540Z,19.30
2023-04-28T11:27:29.050Z,19.20
2023-04-28T11:29:56.314Z,19.10
2023-04-28T11:32:34.477Z,19.00
2023-04-28T11:35:02.214Z,19.10
2023-04-28T11:37:29.171Z,19.20
2023-04-28T11:39:57.294Z,19.30
2023-04-28T11:42:25.977Z,19.40
2023-04-28T11:44:54.392Z,19.50
2023-04-28T11:47:32.743Z,19.40
2023-04-28T11:50:01.214Z,19.30
2023-04-28T11:52:28.140Z,19.10
2023-04-28T11:55:01.953Z,19.00
2023-04-28T11:57:28.916Z,19.00
2023-04-28T12:00:14.291Z,18.90
2023-04-28T12:02:41.510Z,18.90
2023-04-28T12:05:10.127Z,18.60
2023-04-28T12:07:43.240Z,18.50
2023-04-28T12:10:15.969Z,18.50
2023-04-28T12:12:50.632Z,18.60
2023-04-28T12:15:20.464Z,18.50
2023-04-28T12:17:48.476Z,18.50
2023-04-28T12:20:42.662Z,18.50
2023-04-28T12:23:09.790Z,18.60
2023-04-28T12:25:48.015Z,18.60
2023-04-28T12:28:15.268Z,18.70
2023-04-28T12:30:43.503Z,18.60
2023-04-28T12:33:27.356Z,18.50
2023-04-28T12:35:56.172Z,18.50
2023-04-28T12:38:24.026Z,18.40
2023-04-28T12:40:52.846Z,18.30
2023-04-28T12:43:21.127Z,18.40
2023-04-28T12:45:48.006Z,18.40
2023-04-28T12:48:15.032Z,18.40
2023-04-28T12:50:41.915Z,18.30
2023-04-28T12:53:10.424Z,18.30
2023-04-28T12:55:39.901Z,18.40
2023-04-28T12:58:15.264Z,18.50
2023-04-28T13:00:45.363Z,18.50
2023-04-28T13:03:12.536Z,18.60
2023-04-28T13:05:39.527Z,18.70
2023-04-28T13:08:06.379Z,18.80
2023-04-28T13:10:40.621Z,18.90
2023-04-28T13:13:08.546Z,18.70
2023-04-28T13:15:38.511Z,19.10
2023-04-28T13:18:05.728Z,19.10
2023-04-28T13:20:32.644Z,19.20
2023-04-28T13:22:59.553Z,19.30
2023-04-28T13:25:27.065Z,19.30
2023-04-28T13:27:53.956Z,19.30
2023-04-28T13:30:22.024Z,19.40
2023-04-28T13:32:49.013Z,19.40
2023-04-28T13:35:15.982Z,19.40
2023-04-28T13:37:45.849Z,19.30
2023-04-28T13:40:13.056Z,19.10
2023-04-28T13:42:40.303Z,18.80
2023-04-28T13:45:07.628Z,18.50
2023-04-28T13:47:34.655Z,18.60
2023-04-28T13:50:02.680Z,18.80
2023-04-28T13:52:29.558Z,19.00
2023-04-28T13:54:56.418Z,19.20
2023-04-28T13:57:23.686Z,19.30
2023-04-28T14:00:02.430Z,19.10
2023-04-28T14:02:32.841Z,19.20
2023-04-28T14:04:59.866Z,19.30
2023-04-28T14:07:28.286Z,19.30
2023-04-28T14:09:59.294Z,19.40
2023-04-28T14:12:26.804Z,19.40
2023-04-28T14:14:53.696Z,19.30
2023-04-28T14:17:20.553Z,19.20
2023-04-28T14:19:47.552Z,19.20
2023-04-28T14:22:16.343Z,19.20
2023-04-28T14:24:43.971Z,19.30
2023-04-28T14:27:13.603Z,19.50
2023-04-28T14:29:42.296Z,19.50
2023-04-28T14:32:12.838Z,19.50
2023-04-28T14:34:43.397Z,19.40
2023-04-28T14:37:10.685Z,19.30
2023-04-28T14:39:38.832Z,19.10
2023-04-28T14:42:06.144Z,18.80
2023-04-28T14:44:34.217Z,18.70
2023-04-28T14:47:02.154Z,18.50
2023-04-28T14:49:29.329Z,18.50
2023-04-28T14:51:56.598Z,18.40
2023-04-28T14:54:23.813Z,18.40
2023-04-28T14:56:50.885Z,18.50
2023-04-28T14:59:18.825Z,18.40
2023-04-28T15:01:46.076Z,18.40
2023-04-28T15:04:13.299Z,18.40
2023-04-28T15:06:40.302Z,18.50
2023-04-28T15:09:07.447Z,18.50
2023-04-28T15:11:34.284Z,18.50
2023-04-28T15:14:01.520Z,18.40
2023-04-28T15:16:28.447Z,18.40
2023-04-28T15:18:55.505Z,18.30
2023-04-28T15:21:23.499Z,18.20
2023-04-28T15:23:50.379Z,18.10
2023-04-28T15:26:17.250Z,17.90
2023-04-28T15:28:44.148Z,17.90
2023-04-28T15:31:10.961Z,17.80
2023-04-28T15:33:37.909Z,17.70
2023-04-28T15:36:05.196Z,17.70
2023-04-28T15:38:32.684Z,17.60
2023-04-28T15:40:59.566Z,17.40
2023-04-28T15:43:26.474Z,17.30
2023-04-28T15:45:53.540Z,17.20
2023-04-28T15:48:20.832Z,17.30
2023-04-28T15:50:47.820Z,17.40
2023-04-28T15:53:15.445Z,17.70
2023-04-28T15:55:42.286Z,17.40
2023-04-28T15:58:10.785Z,17.30
2023-04-28T16:00:37.791Z,17.20
2023-04-28T16:03:04.858Z,17.00
2023-04-28T16:05:31.970Z,16.90
2023-04-28T16:07:58.848Z,16.80
2023-04-28T16:10:25.765Z,16.70
2023-04-28T16:12:52.708Z,17.00
2023-04-28T16:15:20.162Z,16.70
2023-04-28T16:17:47.782Z,16.70
2023-04-28T16:20:14.980Z,16.70
2023-04-28T16:22:41.955Z,16.70
2023-04-28T16:25:09.485Z,16.60
2023-04-28T16:27:36.832Z,16.60
2023-04-28T16:30:07.110Z,16.60
2023-04-28T16:32:36.336Z,16.60
2023-04-28T16:35:03.647Z,16.80
2023-04-28T16:37:30.561Z,16.70
2023-04-28T16:39:57.436Z,16.80
2023-04-28T16:42:24.265Z,17.20
2023-04-28T16:44:52.779Z,17.10
2023-04-28T16:47:20.920Z,17.10
2023-04-28T16:49:48.225Z,17.10
2023-04-28T16:52:15.531Z,17.10
2023-04-28T16:54:42.511Z,17.20
2023-04-28T16:57:09.537Z,17.10
2023-04-28T16:59:37.429Z,17.10
2023-04-28T17:02:04.926Z,17.10
2023-04-28T17:04:32.338Z,17.00
2023-04-28T17:06:59.602Z,16.90
2023-04-28T17:09:27.535Z,17.00
2023-04-28T17:11:54.881Z,16.90
2023-04-28T17:14:22.036Z,16.90
2023-04-28T17:16:48.940Z,16.80
2023-04-28T17:19:16.684Z,16.70
2023-04-28T17:21:43.647Z,16.40
2023-04-28T17:24:10.688Z,16.30
2023-04-28T17:26:37.569Z,16.10
2023-04-28T17:29:04.829Z,16.20
2023-04-28T17:31:31.895Z,16.00
2023-04-28T17:33:59.926Z,15.80
2023-04-28T17:36:27.183Z,15.60
2023-04-28T17:38:54.933Z,15.40
2023-04-28T17:41:22.852Z,15.20
2023-04-28T17:43:51.793Z,15.00
2023-04-28T17:46:19.527Z,14.90
2023-04-28T17:48:46.548Z,14.80
2023-04-28T17:51:13.536Z,14.70
2023-04-28T17:53:40.615Z,14.70
2023-04-28T17:56:08.594Z,14.50
2023-04-28T17:58:36.436Z,14.40
2023-04-28T18:01:04.639Z,14.20
2023-04-28T18:03:32.412Z,14.10
2023-04-28T18:05:59.473Z,14.00
2023-04-28T18:08:26.335Z,13.80
2023-04-28T18:10:53.456Z,13.60
2023-04-28T18:13:20.415Z,13.60
2023-04-28T18:15:47.732Z,13.50
2023-04-28T18:18:14.562Z,13.40
2023-04-28T18:20:42.865Z,13.40
2023-04-28T18:23:10.218Z,13.30
2023-04-28T18:25:37.782Z,13.30
2023-04-28T18:28:05.842Z,13.30
2023-04-28T18:30:38.696Z,13.30
2023-04-28T18:33:09.542Z,13.30
2023-04-28T18:35:36.880Z,13.30
2023-04-28T18:38:04.986Z,13.40
2023-04-28T18:40:34.084Z,13.20
2023-04-28T18:43:04.252Z,13.20
2023-04-28T18:45:36.003Z,13.30
2023-04-28T18:48:03.760Z,13.10
2023-04-28T18:50:32.262Z,13.00
2023-04-28T18:53:04.149Z,13.00
2023-04-28T18:55:33.533Z,13.30
2023-04-28T18:58:02.232Z,13.10
2023-04-28T19:00:29.588Z,13.10
2023-04-28T19:02:56.637Z,13.10
2023-04-28T19:05:23.896Z,13.10
2023-04-28T19:07:50.740Z,13.10
2023-04-28T19:10:17.732Z,13.10
2023-04-28T19:12:44.603Z,13.10
2023-04-28T19:15:11.444Z,13.10
2023-04-28T19:17:38.423Z,13.10
2023-04-28T19:20:06.053Z,13.10
2023-04-28T19:22:37.638Z,13.10
2023-04-28T19:25:06.792Z,13.10
2023-04-28T19:27:39.464Z,13.10
2023-04-28T19:30:08.983Z,13.00
2023-04-28T19:32:35.915Z,13.00
2023-04-28T19:35:04.210Z,13.00
2023-04-28T19:37:32.116Z,13.00
2023-04-28T19:39:59.128Z,13.10
2023-04-28T19:42:26.237Z,13.10
2023-04-28T19:44:58.012Z,13.10
2023-04-28T19:47:29.753Z,13.10
2023-04-28T19:49:56.732Z,13.10
2023-04-28T19:52:23.680Z,13.10
2023-04-28T19:54:51.295Z,13.10
2023-04-28T19:57:18.879Z,13.10
2023-04-28T19:59:49.184Z,13.20
2023-04-28T20:02:17.188Z,13.10
2023-04-28T20:04:44.332Z,13.10
2023-04-28T20:07:11.442Z,13.10
2023-04-28T20:09:38.907Z,13.10
2023-04-28T20:12:09.433Z,13.10
2023-04-28T20:14:37.671Z,13.00
2023-04-28T20:17:05.510Z,13.00
2023-04-28T20:19:32.524Z,13.10
2023-04-28T20:22:02.879Z,13.10
2023-04-28T20:24:29.759Z,13.10
2023-04-28T20:26:56.668Z,13.10
2023-04-28T20:29:24.253Z,13.10
2023-04-28T20:31:51.460Z,13.00
2023-04-28T20:34:20.773Z,13.00
2023-04-28T20:36:47.653Z,13.00
2023-04-28T20:39:14.506Z,13.10
2023-04-28T20:41:41.436Z,13.00
2023-04-28T20:44:08.737Z,13.10
2023-04-28T20:46:36.133Z,13.10
2023-04-28T20:49:04.208Z,13.10
2023-04-28T20:51:34.238Z,13.10
2023-04-28T20:54:01.750Z,13.00
2023-04-28T20:56:28.743Z,13.00
2023-04-28T20:58:55.827Z,13.00
2023-04-28T21:01:24.892Z,13.10
2023-04-28T21:03:51.849Z,13.00
2023-04-28T21:06:19.084Z,13.00
2023-04-28T21:08:45.920Z,13.10
2023-04-28T21:11:16.770Z,13.10
2023-04-28T21:13:44.822Z,13.10
2023-04-28T21:16:21.218Z,13.10
2023-04-28T21:18:49.430Z,13.30
2023-04-28T21:21:17.091Z,13.10
2023-04-28T21:23:44.401Z,13.20
2023-04-28T21:26:11.611Z,13.20
2023-04-28T21:28:39.882Z,13.30
2023-04-28T21:31:07.264Z,13.30
2023-04-28T21:33:34.257Z,13.50
2023-04-28T21:36:08.994Z,13.30
2023-04-28T21:38:39.317Z,13.30
2023-04-28T21:41:07.512Z,13.30
2023-04-28T21:43:34.827Z,13.30
2023-04-28T21:46:01.835Z,13.30
2023-04-28T21:48:29.006Z,13.30
2023-04-28T21:50:55.949Z,13.30
2023-04-28T21:53:22.794Z,13.30
2023-04-28T21:55:49.704Z,13.50
2023-04-28T21:58:16.582Z,13.40
2023-04-28T22:00:47.099Z,13.40
2023-04-28T22:03:15.398Z,13.40
2023-04-28T22:05:43.505Z,13.50
2023-04-28T22:08:10.425Z,13.50
2023-04-28T22:10:37.617Z,13.50
2023-04-28T22:13:06.026Z,13.50
2023-04-28T22:15:33.070Z,13.60
2023-04-28T22:18:00.007Z,13.60
2023-04-28T22:20:27.007Z,13.70
2023-04-28T22:22:54.170Z,13.60
2023-04-28T22:25:21.344Z,13.90
2023-04-28T22:27:48.222Z,13.60
2023-04-28T22:30:15.653Z,13.60
2023-04-28T22:32:47.001Z,13.60
2023-04-28T22:35:14.196Z,13.60
2023-04-28T22:37:41.020Z,13.60
2023-04-28T22:40:08.758Z,13.60
2023-04-28T22:42:37.077Z,13.70
2023-04-28T22:45:05.047Z,13.60
2023-04-28T22:47:32.737Z,13.60
2023-04-28T22:49:59.699Z,13.60
2023-04-28T22:52:26.763Z,13.60
2023-04-28T22:54:53.621Z,13.60
2023-04-28T22:57:20.541Z,13.60
2023-04-28T23:00:19.155Z,13.60
2023-04-28T23:02:46.230Z,13.60
2023-04-28T23:05:13.686Z,13.70
2023-04-28T23:07:40.968Z,13.60
2023-04-28T23:10:08.495Z,13.70
2023-04-28T23:12:35.359Z,13.70
2023-04-28T23:15:02.554Z,13.80
2023-04-28T23:17:29.427Z,13.70
2023-04-28T23:19:56.310Z,13.70
2023-04-28T23:22:23.166Z,13.80
2023-04-28T23:24:50.039Z,13.80
2023-04-28T23:27:17.623Z,13.80
2023-04-28T23:29:44.528Z,13.90
2023-04-28T23:32:12.617Z,13.90
2023-04-28T23:34:41.710Z,13.90
2023-04-28T23:37:08.743Z,13.90
2023-04-28T23:39:35.766Z,13.90
2023-04-28T23:42:02.692Z,13.90
2023-04-28T23:44:29.588Z,13.90
2023-04-28T23:46:56.603Z,13.90
2023-04-28T23:49:23.787Z,13.90
2023-04-28T23:51:50.784Z,13.90
2023-04-28T23:54:17.694Z,13.90
2023-04-28T23:56:44.621Z,13.90
2023-04-28T23:59:11.535Z,13.90
